AIC4209 VIDP-OMDB
Flight info
| Callsign | AIC4209 |
|---|---|
| Flight time | N/A |
| Altitude | 38000 |
| Route | DUDUM6G DUDUM A474 NIKOT R462 UUD J61 LAXOM L639 ISLIL/N0485F400 L639 RASKI L301 RAGMA N571 VUSET A454 PASOV B540 KUPMA/N0459F240 B540 MIVEK P574 IMPED |
| Aircraft | B77L/H-SDE1E2E3FGHIJ2J3J4J5M1RWXY/LB1D1 |
Departure
| Time | N/A |
|---|---|
| Airport | Indira Gandhi International Airport (VIDP) |
Arrival
| Time | 2026-05-04 09:17 |
|---|---|
| Airport | Dubai International Airport (OMDB) |
| Time | Latitude | Longitude | Altitude | Speed | Heading |
|---|---|---|---|---|---|
| 2026-05-04 07:14 | 22.82221 | 70.60716 | 37787 ft | 448 kts | 275° |
| 2026-05-04 07:14 | 22.82448 | 70.57343 | 37784 ft | 448 kts | 275° |
| 2026-05-04 07:15 | 22.82879 | 70.50596 | 37781 ft | 449 kts | 275° |
| 2026-05-04 07:15 | 22.83299 | 70.43825 | 37782 ft | 450 kts | 275° |
| 2026-05-04 07:16 | 22.83716 | 70.37054 | 37780 ft | 450 kts | 275° |
| 2026-05-04 07:16 | 22.84132 | 70.30280 | 37780 ft | 450 kts | 275° |
| 2026-05-04 07:17 | 22.84545 | 70.23510 | 37784 ft | 450 kts | 275° |
| 2026-05-04 07:17 | 22.84953 | 70.16783 | 37780 ft | 449 kts | 275° |
| 2026-05-04 07:18 | 22.85361 | 70.10016 | 37779 ft | 449 kts | 275° |
| 2026-05-04 07:18 | 22.85764 | 70.03260 | 37779 ft | 448 kts | 275° |
| 2026-05-04 07:19 | 22.86165 | 69.96514 | 37778 ft | 448 kts | 275° |
| 2026-05-04 07:19 | 22.86561 | 69.89788 | 37781 ft | 448 kts | 275° |
| 2026-05-04 07:20 | 22.86954 | 69.83077 | 37775 ft | 448 kts | 275° |
| 2026-05-04 07:20 | 22.87346 | 69.76330 | 37777 ft | 448 kts | 275° |
| 2026-05-04 07:22 | 22.89044 | 69.49394 | 37778 ft | 448 kts | 276° |
| 2026-05-04 07:23 | 22.89477 | 69.42647 | 37771 ft | 449 kts | 275° |
| 2026-05-04 07:23 | 22.89905 | 69.35891 | 37774 ft | 449 kts | 275° |
| 2026-05-04 07:24 | 22.90330 | 69.29130 | 37769 ft | 449 kts | 275° |
| 2026-05-04 07:24 | 22.90753 | 69.22370 | 37771 ft | 449 kts | 275° |
| 2026-05-04 07:26 | 22.92415 | 68.95333 | 37767 ft | 450 kts | 275° |
| 2026-05-04 07:27 | 22.92824 | 68.88565 | 37768 ft | 450 kts | 275° |
| 2026-05-04 07:27 | 22.93163 | 68.82929 | 37767 ft | 450 kts | 275° |
| 2026-05-04 07:28 | 22.93566 | 68.76157 | 37763 ft | 450 kts | 275° |
| 2026-05-04 07:28 | 22.93968 | 68.69373 | 37768 ft | 450 kts | 275° |
| 2026-05-04 07:29 | 22.94364 | 68.62639 | 37767 ft | 450 kts | 275° |
| 2026-05-04 07:29 | 22.94759 | 68.55868 | 37763 ft | 450 kts | 275° |
| 2026-05-04 07:30 | 22.95152 | 68.49091 | 37761 ft | 450 kts | 275° |
| 2026-05-04 07:30 | 22.95542 | 68.42321 | 37762 ft | 450 kts | 275° |
| 2026-05-04 07:31 | 22.95841 | 68.35547 | 37755 ft | 450 kts | 273° |
| 2026-05-04 07:33 | 22.95817 | 68.08300 | 37755 ft | 452 kts | 272° |
| 2026-05-04 07:33 | 22.95815 | 68.01524 | 37756 ft | 452 kts | 272° |
| 2026-05-04 07:34 | 22.95810 | 67.94700 | 37760 ft | 452 kts | 272° |
| 2026-05-04 07:34 | 22.95801 | 67.87869 | 37754 ft | 453 kts | 272° |
| 2026-05-04 07:35 | 22.95807 | 67.81029 | 37757 ft | 453 kts | 272° |
| 2026-05-04 07:35 | 22.95826 | 67.74187 | 37756 ft | 454 kts | 272° |
| 2026-05-04 07:36 | 22.95842 | 67.67325 | 37756 ft | 454 kts | 272° |
| 2026-05-04 07:38 | 22.95864 | 67.39901 | 37759 ft | 455 kts | 272° |
| 2026-05-04 07:38 | 22.95861 | 67.33024 | 37758 ft | 456 kts | 272° |
| 2026-05-04 07:39 | 22.95856 | 67.26189 | 37810 ft | 457 kts | 272° |
| 2026-05-04 07:39 | 22.95853 | 67.22739 | 38122 ft | 457 kts | 272° |
| 2026-05-04 07:39 | 22.95848 | 67.19304 | 38529 ft | 454 kts | 272° |
| 2026-05-04 07:40 | 22.95843 | 67.15885 | 38903 ft | 452 kts | 271° |
| 2026-05-04 07:40 | 22.95837 | 67.12482 | 39235 ft | 450 kts | 271° |
| 2026-05-04 07:40 | 22.95830 | 67.09086 | 39535 ft | 449 kts | 271° |
| 2026-05-04 07:40 | 22.95823 | 67.05697 | 39674 ft | 451 kts | 271° |
| 2026-05-04 07:41 | 22.95807 | 66.98866 | 39755 ft | 452 kts | 271° |
| 2026-05-04 07:41 | 22.95808 | 66.92063 | 39756 ft | 449 kts | 272° |
| 2026-05-04 07:42 | 22.95854 | 66.85282 | 39763 ft | 448 kts | 272° |
| 2026-05-04 07:42 | 22.95903 | 66.78534 | 39763 ft | 447 kts | 272° |
| 2026-05-04 07:43 | 22.95943 | 66.71798 | 39762 ft | 446 kts | 272° |
| 2026-05-04 07:43 | 22.95977 | 66.65089 | 39763 ft | 447 kts | 272° |
| 2026-05-04 07:44 | 22.96008 | 66.58341 | 39763 ft | 447 kts | 272° |
| 2026-05-04 07:44 | 22.96035 | 66.51580 | 39766 ft | 448 kts | 271° |
| 2026-05-04 07:45 | 22.96060 | 66.44807 | 39763 ft | 449 kts | 271° |
| 2026-05-04 07:45 | 22.96082 | 66.38066 | 39765 ft | 449 kts | 271° |
| 2026-05-04 07:46 | 22.96101 | 66.31279 | 39768 ft | 450 kts | 271° |
| 2026-05-04 07:46 | 22.96117 | 66.24483 | 39765 ft | 450 kts | 271° |
| 2026-05-04 07:47 | 22.96130 | 66.17682 | 39765 ft | 451 kts | 271° |
| 2026-05-04 07:49 | 22.96154 | 65.90462 | 39770 ft | 451 kts | 271° |
| 2026-05-04 07:49 | 22.96153 | 65.83665 | 39770 ft | 450 kts | 271° |
| 2026-05-04 07:50 | 22.96149 | 65.76871 | 39774 ft | 450 kts | 271° |
| 2026-05-04 07:50 | 22.96142 | 65.70121 | 39772 ft | 450 kts | 271° |
| 2026-05-04 07:51 | 22.96133 | 65.63323 | 39775 ft | 450 kts | 271° |
| 2026-05-04 07:51 | 22.96120 | 65.56531 | 39777 ft | 450 kts | 271° |
| 2026-05-04 07:52 | 22.96104 | 65.49738 | 39776 ft | 450 kts | 271° |
| 2026-05-04 07:52 | 22.96086 | 65.42949 | 39776 ft | 449 kts | 271° |
| 2026-05-04 07:54 | 22.95983 | 65.15864 | 39774 ft | 449 kts | 271° |
| 2026-05-04 07:55 | 22.95951 | 65.09081 | 39778 ft | 449 kts | 271° |
| 2026-05-04 07:55 | 22.95915 | 65.02289 | 39778 ft | 449 kts | 271° |
| 2026-05-04 07:56 | 22.95876 | 64.95499 | 39775 ft | 450 kts | 271° |
| 2026-05-04 07:56 | 22.95836 | 64.88751 | 39774 ft | 450 kts | 271° |
| 2026-05-04 07:57 | 22.95906 | 64.81975 | 39786 ft | 449 kts | 276° |
| 2026-05-04 07:57 | 22.96603 | 64.75248 | 39786 ft | 448 kts | 278° |
| 2026-05-04 07:58 | 22.97350 | 64.68524 | 39782 ft | 448 kts | 278° |
| 2026-05-04 07:58 | 22.98077 | 64.61799 | 39780 ft | 449 kts | 277° |
| 2026-05-04 07:59 | 22.98787 | 64.55068 | 39786 ft | 449 kts | 277° |
| 2026-05-04 07:59 | 22.99490 | 64.48334 | 39786 ft | 449 kts | 277° |
| 2026-05-04 08:00 | 23.00186 | 64.41642 | 39784 ft | 449 kts | 277° |
| 2026-05-04 08:02 | 23.02967 | 64.14667 | 39783 ft | 449 kts | 277° |
| 2026-05-04 08:02 | 23.03654 | 64.07924 | 39781 ft | 449 kts | 277° |
| 2026-05-04 08:03 | 23.04335 | 64.01225 | 39785 ft | 449 kts | 277° |
| 2026-05-04 08:03 | 23.05016 | 63.94489 | 39781 ft | 449 kts | 277° |
| 2026-05-04 08:04 | 23.05695 | 63.87752 | 39779 ft | 449 kts | 277° |
| 2026-05-04 08:04 | 23.06387 | 63.81022 | 39784 ft | 448 kts | 277° |
| 2026-05-04 08:05 | 23.07096 | 63.74276 | 39788 ft | 448 kts | 277° |
| 2026-05-04 08:05 | 23.07802 | 63.67545 | 39783 ft | 449 kts | 277° |
| 2026-05-04 08:06 | 23.08499 | 63.60838 | 39780 ft | 449 kts | 277° |
| 2026-05-04 08:06 | 23.09195 | 63.54102 | 39783 ft | 449 kts | 277° |
| 2026-05-04 08:08 | 23.11954 | 63.27099 | 39779 ft | 450 kts | 277° |
| 2026-05-04 08:11 | 23.15004 | 62.96696 | 39778 ft | 450 kts | 277° |
| 2026-05-04 08:11 | 23.16009 | 62.86542 | 39780 ft | 451 kts | 277° |
| 2026-05-04 08:12 | 23.16673 | 62.79809 | 39779 ft | 451 kts | 277° |
| 2026-05-04 08:12 | 23.17226 | 62.74168 | 39777 ft | 451 kts | 277° |
| 2026-05-04 08:13 | 23.17889 | 62.67380 | 39778 ft | 451 kts | 277° |
| 2026-05-04 08:13 | 23.18549 | 62.60588 | 39777 ft | 451 kts | 277° |
| 2026-05-04 08:14 | 23.19203 | 62.53835 | 39778 ft | 452 kts | 277° |
| 2026-05-04 08:16 | 23.21807 | 62.26631 | 39776 ft | 452 kts | 277° |
| 2026-05-04 08:16 | 23.22451 | 62.19821 | 39769 ft | 453 kts | 277° |
| 2026-05-04 08:17 | 23.23092 | 62.13015 | 39773 ft | 453 kts | 277° |
| 2026-05-04 08:17 | 23.23726 | 62.06248 | 39772 ft | 452 kts | 277° |
| 2026-05-04 08:19 | 23.26246 | 61.79042 | 39767 ft | 452 kts | 277° |
| 2026-05-04 08:20 | 23.26869 | 61.72238 | 39766 ft | 452 kts | 277° |
| 2026-05-04 08:20 | 23.27487 | 61.65446 | 39767 ft | 451 kts | 277° |
| 2026-05-04 08:21 | 23.28104 | 61.58641 | 39765 ft | 451 kts | 276° |
| 2026-05-04 08:21 | 23.28713 | 61.51891 | 39757 ft | 451 kts | 276° |
| 2026-05-04 08:22 | 23.29324 | 61.45091 | 39767 ft | 451 kts | 276° |
| 2026-05-04 08:24 | 23.31737 | 61.17897 | 39761 ft | 452 kts | 277° |
| 2026-05-04 08:24 | 23.32532 | 61.11110 | 39761 ft | 452 kts | 279° |
| 2026-05-04 08:25 | 23.33435 | 61.04344 | 39761 ft | 452 kts | 279° |
| 2026-05-04 08:25 | 23.34311 | 60.97559 | 39756 ft | 452 kts | 278° |
| 2026-05-04 08:27 | 23.37684 | 60.70418 | 39759 ft | 453 kts | 278° |
| 2026-05-04 08:28 | 23.38877 | 60.63700 | 39757 ft | 452 kts | 286° |
| 2026-05-04 08:28 | 23.41008 | 60.57259 | 39756 ft | 452 kts | 291° |
| 2026-05-04 08:29 | 23.43370 | 60.50920 | 39756 ft | 452 kts | 292° |
| 2026-05-04 08:31 | 23.52683 | 60.25495 | 39758 ft | 452 kts | 291° |
| 2026-05-04 08:33 | 23.61921 | 60.00010 | 39756 ft | 452 kts | 291° |
| 2026-05-04 08:35 | 23.71104 | 59.74527 | 39760 ft | 452 kts | 291° |
| 2026-05-04 08:35 | 23.73397 | 59.68138 | 39760 ft | 452 kts | 291° |
| 2026-05-04 08:37 | 23.81395 | 59.45787 | 39760 ft | 452 kts | 291° |
| 2026-05-04 08:38 | 23.83675 | 59.39393 | 39761 ft | 451 kts | 291° |
| 2026-05-04 08:38 | 23.85951 | 59.33000 | 39762 ft | 451 kts | 291° |
| 2026-05-04 08:40 | 23.94891 | 59.07395 | 39764 ft | 451 kts | 289° |
| 2026-05-04 08:41 | 23.96939 | 59.00916 | 39767 ft | 451 kts | 289° |
| 2026-05-04 08:41 | 23.98997 | 58.94442 | 39765 ft | 451 kts | 289° |
| 2026-05-04 08:42 | 24.01070 | 58.87964 | 39767 ft | 450 kts | 289° |
| 2026-05-04 08:42 | 24.03130 | 58.81533 | 39767 ft | 450 kts | 289° |
| 2026-05-04 08:43 | 24.05197 | 58.75066 | 39768 ft | 450 kts | 289° |
| 2026-05-04 08:43 | 24.07265 | 58.68581 | 39770 ft | 451 kts | 289° |
| 2026-05-04 08:44 | 24.09328 | 58.62103 | 39766 ft | 451 kts | 289° |
| 2026-05-04 08:46 | 24.17530 | 58.36191 | 39764 ft | 450 kts | 289° |
| 2026-05-04 08:46 | 24.19577 | 58.29690 | 39766 ft | 450 kts | 289° |
| 2026-05-04 08:47 | 24.21617 | 58.23205 | 39767 ft | 450 kts | 289° |
| 2026-05-04 08:47 | 24.23641 | 58.16759 | 39764 ft | 450 kts | 289° |
| 2026-05-04 08:48 | 24.25676 | 58.10265 | 39766 ft | 450 kts | 289° |
| 2026-05-04 08:48 | 24.27705 | 58.03779 | 39766 ft | 450 kts | 289° |
| 2026-05-04 08:49 | 24.29737 | 57.97277 | 39764 ft | 450 kts | 289° |
| 2026-05-04 08:50 | 24.36809 | 57.74550 | 39762 ft | 450 kts | 288° |
| 2026-05-04 08:51 | 24.38828 | 57.68039 | 39759 ft | 450 kts | 288° |
| 2026-05-04 08:51 | 24.40833 | 57.61558 | 39760 ft | 450 kts | 288° |
| 2026-05-04 08:52 | 24.42847 | 57.55042 | 39757 ft | 450 kts | 288° |
| 2026-05-04 08:52 | 24.44861 | 57.48516 | 39759 ft | 450 kts | 288° |
| 2026-05-04 08:54 | 24.52908 | 57.22382 | 37240 ft | 453 kts | 288° |
| 2026-05-04 08:55 | 24.53914 | 57.19100 | 36446 ft | 452 kts | 288° |
| 2026-05-04 08:55 | 24.54916 | 57.15829 | 35617 ft | 452 kts | 288° |
| 2026-05-04 08:55 | 24.55917 | 57.12561 | 34688 ft | 453 kts | 288° |
| 2026-05-04 08:55 | 24.56927 | 57.09258 | 33676 ft | 456 kts | 288° |
| 2026-05-04 08:57 | 24.63976 | 56.86292 | 27324 ft | 440 kts | 291° |
| 2026-05-04 09:01 | 24.84717 | 56.47597 | 17870 ft | 401 kts | 302° |
| 2026-05-04 09:01 | 24.85665 | 56.45857 | 17401 ft | 399 kts | 301° |
| 2026-05-04 09:01 | 24.86877 | 56.43130 | 16822 ft | 395 kts | 292° |
| 2026-05-04 09:01 | 24.87999 | 56.39308 | 16055 ft | 389 kts | 289° |
| 2026-05-04 09:02 | 24.88530 | 56.37434 | 15632 ft | 387 kts | 289° |
| 2026-05-04 09:02 | 24.89342 | 56.34605 | 14964 ft | 385 kts | 289° |
| 2026-05-04 09:02 | 24.90156 | 56.31802 | 14338 ft | 383 kts | 289° |
| 2026-05-04 09:02 | 24.90970 | 56.29026 | 13736 ft | 380 kts | 288° |
| 2026-05-04 09:03 | 24.91784 | 56.26267 | 13108 ft | 377 kts | 288° |
| 2026-05-04 09:03 | 24.92592 | 56.23530 | 12473 ft | 373 kts | 289° |
| 2026-05-04 09:03 | 24.93391 | 56.20829 | 11873 ft | 369 kts | 288° |
| 2026-05-04 09:03 | 24.94174 | 56.18178 | 11296 ft | 366 kts | 289° |
| 2026-05-04 09:04 | 24.94948 | 56.15554 | 11051 ft | 353 kts | 289° |
| 2026-05-04 09:04 | 24.95687 | 56.13052 | 10931 ft | 336 kts | 289° |
| 2026-05-04 09:04 | 24.96395 | 56.10655 | 10848 ft | 320 kts | 289° |
| 2026-05-04 09:04 | 24.97068 | 56.08376 | 10755 ft | 306 kts | 289° |
| 2026-05-04 09:05 | 24.97711 | 56.06190 | 10669 ft | 292 kts | 289° |
| 2026-05-04 09:05 | 24.98328 | 56.04092 | 10547 ft | 281 kts | 289° |
| 2026-05-04 09:05 | 24.98922 | 56.02073 | 10350 ft | 274 kts | 289° |
| 2026-05-04 09:05 | 24.99497 | 56.00121 | 10068 ft | 270 kts | 289° |
| 2026-05-04 09:06 | 25.00080 | 55.98149 | 9666 ft | 271 kts | 289° |
| 2026-05-04 09:07 | 25.04055 | 55.84619 | 7200 ft | 254 kts | 289° |
| 2026-05-04 09:08 | 25.04587 | 55.82804 | 6915 ft | 250 kts | 288° |
| 2026-05-04 09:08 | 25.05116 | 55.80994 | 6640 ft | 246 kts | 288° |
| 2026-05-04 09:08 | 25.05619 | 55.79281 | 6392 ft | 248 kts | 288° |
| 2026-05-04 09:08 | 25.06155 | 55.77449 | 6082 ft | 253 kts | 288° |
| 2026-05-04 09:09 | 25.06696 | 55.75594 | 5777 ft | 253 kts | 288° |
| 2026-05-04 09:09 | 25.07231 | 55.73763 | 5499 ft | 248 kts | 288° |
| 2026-05-04 09:09 | 25.07763 | 55.71946 | 5214 ft | 251 kts | 288° |
| 2026-05-04 09:09 | 25.08296 | 55.70120 | 4926 ft | 248 kts | 288° |
| 2026-05-04 09:10 | 25.08827 | 55.68300 | 4667 ft | 251 kts | 288° |
| 2026-05-04 09:10 | 25.09358 | 55.66477 | 4365 ft | 247 kts | 287° |
| 2026-05-04 09:10 | 25.09879 | 55.64678 | 4098 ft | 245 kts | 288° |
| 2026-05-04 09:10 | 25.10496 | 55.62948 | 3803 ft | 242 kts | 298° |
| 2026-05-04 09:11 | 25.11426 | 55.61397 | 3657 ft | 240 kts | 302° |
| 2026-05-04 09:11 | 25.12306 | 55.59881 | 3508 ft | 233 kts | 301° |
| 2026-05-04 09:11 | 25.12788 | 55.59016 | 3422 ft | 225 kts | 300° |
| 2026-05-04 09:11 | 25.13576 | 55.57596 | 3380 ft | 207 kts | 300° |
| 2026-05-04 09:12 | 25.14286 | 55.56310 | 3302 ft | 183 kts | 300° |
| 2026-05-04 09:12 | 25.14918 | 55.55167 | 3102 ft | 166 kts | 299° |
| 2026-05-04 09:14 | 25.18603 | 55.48556 | 1800 ft | 144 kts | 300° |
| 2026-05-04 09:14 | 25.19112 | 55.47621 | 1661 ft | 142 kts | 298° |
| 2026-05-04 09:14 | 25.19594 | 55.46683 | 1476 ft | 137 kts | 299° |
| 2026-05-04 09:14 | 25.20080 | 55.45792 | 1284 ft | 136 kts | 300° |
| 2026-05-04 09:15 | 25.20395 | 55.45216 | 1234 ft | 133 kts | 300° |
| 2026-05-04 09:15 | 25.20896 | 55.44316 | 1020 ft | 141 kts | 298° |
| 2026-05-04 09:15 | 25.21419 | 55.43384 | 855 ft | 142 kts | 298° |
| 2026-05-04 09:17 | 25.24784 | 55.37224 | 34 ft | 20 kts | 276° |
| 2026-05-04 09:18 | 25.24789 | 55.37067 | 29 ft | 20 kts | 272° |
| 2026-05-04 09:18 | 25.24811 | 55.36932 | 28 ft | 16 kts | 299° |
| 2026-05-04 09:18 | 25.24856 | 55.36822 | 28 ft | 16 kts | 285° |
| 2026-05-04 09:18 | 25.24882 | 55.36705 | 27 ft | 16 kts | 288° |
| 2026-05-04 09:19 | 25.24935 | 55.36590 | 27 ft | 21 kts | 301° |
| 2026-05-04 09:19 | 25.25028 | 55.36424 | 27 ft | 26 kts | 302° |
| 2026-05-04 09:19 | 25.25125 | 55.36253 | 27 ft | 26 kts | 302° |
| 2026-05-04 09:19 | 25.25221 | 55.36082 | 29 ft | 26 kts | 302° |
| 2026-05-04 09:20 | 25.25317 | 55.35911 | 29 ft | 26 kts | 302° |
| 2026-05-04 09:20 | 25.25413 | 55.35740 | 30 ft | 26 kts | 301° |
| 2026-05-04 09:20 | 25.25508 | 55.35571 | 29 ft | 26 kts | 302° |
| 2026-05-04 09:20 | 25.25547 | 55.35378 | 26 ft | 26 kts | 271° |
| 2026-05-04 09:21 | 25.25602 | 55.35220 | 29 ft | 21 kts | 306° |
| 2026-05-04 09:21 | 25.25678 | 55.35082 | 26 ft | 21 kts | 301° |
| 2026-05-04 09:21 | 25.25754 | 55.34944 | 30 ft | 21 kts | 301° |
| 2026-05-04 09:21 | 25.25830 | 55.34806 | 31 ft | 21 kts | 302° |
| 2026-05-04 09:22 | 25.25850 | 55.34734 | 28 ft | 5 kts | 230° |
| 2026-05-04 09:22 | 25.25813 | 55.34712 | 30 ft | 7 kts | 209° |
| 2026-05-04 09:22 | 25.25786 | 55.34694 | 28 ft | 3 kts | 211° |
| 2026-05-04 09:22 | 25.25781 | 55.34691 | 29 ft | 0 kts | 211° |